sensor_id;sensor_type;location;lat;lon;timestamp;pressure;altitude;pressure_sealevel;temperature;humidity
39891;BME280;25564;53.312;9.790;2023-02-17T00:01:22;100937.84;;;8.80;100.00
39891;BME280;25564;53.312;9.790;2023-02-17T00:03:54;100936.13;;;8.76;100.00
39891;BME280;25564;53.312;9.790;2023-02-17T00:21:55;100915.84;;;8.73;100.00
39891;BME280;25564;53.312;9.790;2023-02-17T00:24:29;100913.16;;;8.78;100.00
39891;BME280;25564;53.312;9.790;2023-02-17T00:27:00;100918.44;;;8.81;100.00
39891;BME280;25564;53.312;9.790;2023-02-17T00:29:32;100918.41;;;8.84;100.00
39891;BME280;25564;53.312;9.790;2023-02-17T00:32:03;100889.44;;;8.67;100.00
39891;BME280;25564;53.312;9.790;2023-02-17T00:34:36;100890.25;;;8.74;100.00
39891;BME280;25564;53.312;9.790;2023-02-17T00:37:07;100915.78;;;8.84;100.00
39891;BME280;25564;53.312;9.790;2023-02-17T00:39:38;100909.59;;;8.85;100.00
39891;BME280;25564;53.312;9.790;2023-02-17T00:42:10;100912.22;;;8.87;100.00
39891;BME280;25564;53.312;9.790;2023-02-17T00:44:41;100911.31;;;8.89;100.00
39891;BME280;25564;53.312;9.790;2023-02-17T00:47:12;100906.03;;;8.89;100.00
39891;BME280;25564;53.312;9.790;2023-02-17T00:49:44;100911.31;;;8.91;100.00
39891;BME280;25564;53.312;9.790;2023-02-17T00:52:15;100899.84;;;8.90;100.00
39891;BME280;25564;53.312;9.790;2023-02-17T00:54:46;100905.97;;;8.95;100.00
39891;BME280;25564;53.312;9.790;2023-02-17T00:57:17;100905.97;;;8.97;100.00
39891;BME280;25564;53.312;9.790;2023-02-17T00:59:49;100907.75;;;8.96;100.00
39891;BME280;25564;53.312;9.790;2023-02-17T01:02:20;100894.53;;;8.93;100.00
39891;BME280;25564;53.312;9.790;2023-02-17T01:04:52;100898.88;;;9.00;100.00
39891;BME280;25564;53.312;9.790;2023-02-17T01:07:23;100841.78;;;8.70;100.00
39891;BME280;25564;53.312;9.790;2023-02-17T01:09:55;100882.16;;;8.95;100.00
39891;BME280;25564;53.312;9.790;2023-02-17T01:12:26;100890.00;;;9.06;100.00
39891;BME280;25564;53.312;9.790;2023-02-17T01:14:57;100893.50;;;9.09;100.00
39891;BME280;25564;53.312;9.790;2023-02-17T01:17:28;100887.34;;;9.09;100.00
39891;BME280;25564;53.312;9.790;2023-02-17T01:20:00;100885.56;;;9.11;100.00
39891;BME280;25564;53.312;9.790;2023-02-17T01:22:32;100876.69;;;9.15;100.00
39891;BME280;25564;53.312;9.790;2023-02-17T01:25:03;100853.84;;;9.03;100.00
39891;BME280;25564;53.312;9.790;2023-02-17T01:27:35;100872.28;;;9.15;100.00
39891;BME280;25564;53.312;9.790;2023-02-17T01:30:07;100863.47;;;9.13;100.00
39891;BME280;25564;53.312;9.790;2023-02-17T01:32:38;100866.06;;;9.21;100.00
39891;BME280;25564;53.312;9.790;2023-02-17T01:35:10;100860.75;;;9.23;100.00
39891;BME280;25564;53.312;9.790;2023-02-17T01:37:41;100857.22;;;9.21;100.00
39891;BME280;25564;53.312;9.790;2023-02-17T01:40:13;100860.72;;;9.24;100.00
39891;BME280;25564;53.312;9.790;2023-02-17T01:42:44;100835.19;;;9.17;100.00
39891;BME280;25564;53.312;9.790;2023-02-17T01:48:32;100842.16;;;9.26;100.00
39891;BME280;25564;53.312;9.790;2023-02-17T01:50:54;100831.63;;;9.20;100.00
39891;BME280;25564;53.312;9.790;2023-02-17T01:53:39;100828.94;;;9.24;100.00
39891;BME280;25564;53.312;9.790;2023-02-17T01:56:13;100831.50;;;9.32;100.00
39891;BME280;25564;53.312;9.790;2023-02-17T01:58:49;100815.72;;;9.23;100.00
39891;BME280;25564;53.312;9.790;2023-02-17T02:01:23;100834.13;;;9.35;100.00
39891;BME280;25564;53.312;9.790;2023-02-17T02:03:55;100832.28;;;9.38;100.00
39891;BME280;25564;53.312;9.790;2023-02-17T02:06:27;100825.25;;;9.37;100.00
39891;BME280;25564;53.312;9.790;2023-02-17T02:09:08;100819.06;;;9.38;100.00
39891;BME280;25564;53.312;9.790;2023-02-17T02:11:41;100819.03;;;9.40;100.00
39891;BME280;25564;53.312;9.790;2023-02-17T02:14:12;100814.59;;;9.42;100.00
39891;BME280;25564;53.312;9.790;2023-02-17T02:22:39;100796.88;;;9.47;100.00
39891;BME280;25564;53.312;9.790;2023-02-17T02:28:25;100781.00;;;9.45;100.00
39891;BME280;25564;53.312;9.790;2023-02-17T02:34:02;100773.06;;;9.44;100.00
39891;BME280;25564;53.312;9.790;2023-02-17T02:37:06;100771.28;;;9.47;100.00
39891;BME280;25564;53.312;9.790;2023-02-17T02:39:42;100762.41;;;9.50;100.00
39891;BME280;25564;53.312;9.790;2023-02-17T02:42:16;100760.63;;;9.52;100.00
39891;BME280;25564;53.312;9.790;2023-02-17T02:44:50;100755.31;;;9.52;100.00
39891;BME280;25564;53.312;9.790;2023-02-17T02:53:24;100756.19;;;9.54;100.00
39891;BME280;25564;53.312;9.790;2023-02-17T02:58:57;100734.13;;;9.52;100.00
39891;BME280;25564;53.312;9.790;2023-02-17T03:04:50;100736.72;;;9.57;100.00
39891;BME280;25564;53.312;9.790;2023-02-17T03:08:09;100717.28;;;9.58;100.00
39891;BME280;25564;53.312;9.790;2023-02-17T03:10:47;100705.88;;;9.51;100.00
39891;BME280;25564;53.312;9.790;2023-02-17T03:13:19;100711.97;;;9.58;100.00
39891;BME280;25564;53.312;9.790;2023-02-17T03:15:51;100716.34;;;9.60;100.00
39891;BME280;25564;53.312;9.790;2023-02-17T03:18:22;100685.69;;;9.42;100.00
39891;BME280;25564;53.312;9.790;2023-02-17T03:20:56;100714.59;;;9.61;100.00
39891;BME280;25564;53.312;9.790;2023-02-17T03:23:31;100705.81;;;9.57;100.00
39891;BME280;25564;53.312;9.790;2023-02-17T03:26:03;100698.66;;;9.62;100.00
39891;BME280;25564;53.312;9.790;2023-02-17T03:28:35;100707.47;;;9.64;100.00
39891;BME280;25564;53.312;9.790;2023-02-17T03:31:06;100701.28;;;9.65;100.00
39891;BME280;25564;53.312;9.790;2023-02-17T03:33:37;100707.47;;;9.64;100.00
39891;BME280;25564;53.312;9.790;2023-02-17T03:36:09;100711.88;;;9.65;100.00
39891;BME280;25564;53.312;9.790;2023-02-17T03:38:40;100697.00;;;9.55;100.00
39891;BME280;25564;53.312;9.790;2023-02-17T03:41:12;100709.19;;;9.68;100.00
39891;BME280;25564;53.312;9.790;2023-02-17T03:43:43;100699.47;;;9.69;100.00
39891;BME280;25564;53.312;9.790;2023-02-17T03:46:15;100694.16;;;9.69;100.00
39891;BME280;25564;53.312;9.790;2023-02-17T03:48:47;100671.31;;;9.60;100.00
39891;BME280;25564;53.312;9.790;2023-02-17T03:51:20;100695.03;;;9.69;100.00
39891;BME280;25564;53.312;9.790;2023-02-17T03:53:52;100692.38;;;9.71;100.00
39891;BME280;25564;53.312;9.790;2023-02-17T03:56:23;100698.53;;;9.71;100.00
39891;BME280;25564;53.312;9.790;2023-02-17T03:58:55;100688.78;;;9.75;100.00
39891;BME280;25564;53.312;9.790;2023-02-17T04:01:26;100641.53;;;9.44;100.00
39891;BME280;25564;53.312;9.790;2023-02-17T04:03:57;100670.34;;;9.67;100.00
39891;BME280;25564;53.312;9.790;2023-02-17T04:06:29;100680.03;;;9.68;100.00
39891;BME280;25564;53.312;9.790;2023-02-17T04:09:00;100666.78;;;9.68;100.00
39891;BME280;25564;53.312;9.790;2023-02-17T04:11:31;100657.06;;;9.69;100.00
39891;BME280;25564;53.312;9.790;2023-02-17T04:14:03;100669.31;;;9.76;100.00
39891;BME280;25564;53.312;9.790;2023-02-17T04:16:34;100657.97;;;9.66;100.00
39891;BME280;25564;53.312;9.790;2023-02-17T04:19:09;100672.84;;;9.76;100.00
39891;BME280;25564;53.312;9.790;2023-02-17T04:21:40;100656.06;;;9.77;100.00
39891;BME280;25564;53.312;9.790;2023-02-17T04:24:11;100660.44;;;9.78;100.00
39891;BME280;25564;53.312;9.790;2023-02-17T04:26:43;100645.59;;;9.68;100.00
39891;BME280;25564;53.312;9.790;2023-02-17T04:29:14;100662.22;;;9.78;100.00
39891;BME280;25564;53.312;9.790;2023-02-17T04:31:45;100661.31;;;9.79;100.00
39891;BME280;25564;53.312;9.790;2023-02-17T04:34:17;100659.59;;;9.76;100.00
39891;BME280;25564;53.312;9.790;2023-02-17T04:36:48;100662.19;;;9.79;100.00
39891;BME280;25564;53.312;9.790;2023-02-17T04:39:19;100651.75;;;9.69;100.00
39891;BME280;25564;53.312;9.790;2023-02-17T04:41:51;100642.88;;;9.73;100.00
39891;BME280;25564;53.312;9.790;2023-02-17T04:44:23;100633.16;;;9.73;100.00
39891;BME280;25564;53.312;9.790;2023-02-17T04:46:54;100644.47;;;9.83;100.00
39891;BME280;25564;53.312;9.790;2023-02-17T04:49:25;100649.75;;;9.84;100.00
39891;BME280;25564;53.312;9.790;2023-02-17T04:51:57;100653.28;;;9.85;100.00
39891;BME280;25564;53.312;9.790;2023-02-17T04:54:28;100645.31;;;9.87;100.00
39891;BME280;25564;53.312;9.790;2023-02-17T04:56:59;100646.22;;;9.86;100.00
39891;BME280;25564;53.312;9.790;2023-02-17T04:59:31;100636.47;;;9.88;100.00
39891;BME280;25564;53.312;9.790;2023-02-17T05:02:02;100628.53;;;9.86;100.00
39891;BME280;25564;53.312;9.790;2023-02-17T05:04:34;100609.25;;;9.76;100.00
39891;BME280;25564;53.312;9.790;2023-02-17T05:07:05;100629.34;;;9.90;100.00
39891;BME280;25564;53.312;9.790;2023-02-17T05:09:36;100621.44;;;9.88;100.00
39891;BME280;25564;53.312;9.790;2023-02-17T05:12:08;100613.41;;;9.93;100.00
39891;BME280;25564;53.312;9.790;2023-02-17T05:14:39;100592.44;;;9.77;100.00
39891;BME280;25564;53.312;9.790;2023-02-17T05:17:10;100608.06;;;9.94;100.00
39891;BME280;25564;53.312;9.790;2023-02-17T05:19:42;100597.59;;;9.87;100.00
39891;BME280;25564;53.312;9.790;2023-02-17T05:22:14;100608.94;;;9.95;100.00
39891;BME280;25564;53.312;9.790;2023-02-17T05:24:45;100581.81;;;9.79;100.00
39891;BME280;25564;53.312;9.790;2023-02-17T05:27:17;100624.78;;;9.99;100.00
39891;BME280;25564;53.312;9.790;2023-02-17T05:29:48;100592.25;;;9.90;100.00
39891;BME280;25564;53.312;9.790;2023-02-17T05:32:21;100584.28;;;9.91;100.00
39891;BME280;25564;53.312;9.790;2023-02-17T05:34:53;100597.34;;;10.02;100.00
39891;BME280;25564;53.312;9.790;2023-02-17T05:37:25;100601.78;;;10.01;100.00
39891;BME280;25564;53.312;9.790;2023-02-17T05:39:56;100605.31;;;10.00;100.00
39891;BME280;25564;53.312;9.790;2023-02-17T05:42:28;100598.25;;;10.01;100.00
39891;BME280;25564;53.312;9.790;2023-02-17T05:44:59;100594.72;;;10.00;100.00
39891;BME280;25564;53.312;9.790;2023-02-17T05:47:31;100564.03;;;9.86;100.00
39891;BME280;25564;53.312;9.790;2023-02-17T05:50:02;100581.50;;;9.99;100.00
39891;BME280;25564;53.312;9.790;2023-02-17T05:52:34;100586.75;;;10.00;100.00
39891;BME280;25564;53.312;9.790;2023-02-17T05:55:06;100567.44;;;9.94;100.00
39891;BME280;25564;53.312;9.790;2023-02-17T05:57:37;100565.59;;;9.99;100.00
39891;BME280;25564;53.312;9.790;2023-02-17T06:00:09;100561.19;;;9.98;100.00
39891;BME280;25564;53.312;9.790;2023-02-17T06:02:40;100554.19;;;9.94;100.00
39891;BME280;25564;53.312;9.790;2023-02-17T06:05:12;100548.97;;;9.89;100.00
39891;BME280;25564;53.312;9.790;2023-02-17T06:07:43;100539.34;;;9.83;100.00
39891;BME280;25564;53.312;9.790;2023-02-17T06:10:15;100545.44;;;9.89;100.00
39891;BME280;25564;53.312;9.790;2023-02-17T06:12:46;100553.34;;;9.92;100.00
39891;BME280;25564;53.312;9.790;2023-02-17T06:15:18;100566.50;;;9.96;100.00
39891;BME280;25564;53.312;9.790;2023-02-17T06:17:49;100567.38;;;9.97;100.00
39891;BME280;25564;53.312;9.790;2023-02-17T06:20:21;100537.59;;;9.82;100.00
39891;BME280;25564;53.312;9.790;2023-02-17T06:22:52;100549.72;;;9.96;100.00
39891;BME280;25564;53.312;9.790;2023-02-17T06:25:23;100547.06;;;9.97;100.00
39891;BME280;25564;53.312;9.790;2023-02-17T06:27:55;100535.56;;;9.97;100.00
39891;BME280;25564;53.312;9.790;2023-02-17T06:30:26;100539.13;;;9.96;100.00
39891;BME280;25564;53.312;9.790;2023-02-17T06:32:58;100528.56;;;9.93;100.00
39891;BME280;25564;53.312;9.790;2023-02-17T06:35:29;100547.03;;;9.99;100.00
39891;BME280;25564;53.312;9.790;2023-02-17T06:38:00;100540.81;;;10.00;100.00
39891;BME280;25564;53.312;9.790;2023-02-17T06:40:32;100538.16;;;10.00;100.00
39891;BME280;25564;53.312;9.790;2023-02-17T06:43:05;100528.47;;;9.99;100.00
39891;BME280;25564;53.312;9.790;2023-02-17T06:45:36;100527.56;;;10.00;100.00
39891;BME280;25564;53.312;9.790;2023-02-17T06:48:08;100510.75;;;10.01;100.00
39891;BME280;25564;53.312;9.790;2023-02-17T06:50:39;100505.47;;;10.01;100.00
39891;BME280;25564;53.312;9.790;2023-02-17T06:53:11;100496.59;;;10.02;100.00
39891;BME280;25564;53.312;9.790;2023-02-17T06:55:43;100474.69;;;9.92;100.00
39891;BME280;25564;53.312;9.790;2023-02-17T06:58:15;100485.13;;;10.01;100.00
39891;BME280;25564;53.312;9.790;2023-02-17T07:00:46;100473.63;;;10.02;100.00
39891;BME280;25564;53.312;9.790;2023-02-17T07:03:17;100476.28;;;10.01;100.00
39891;BME280;25564;53.312;9.790;2023-02-17T07:05:49;100471.13;;;9.93;100.00
39891;BME280;25564;53.312;9.790;2023-02-17T07:08:20;100486.03;;;10.00;100.00
39891;BME280;25564;53.312;9.790;2023-02-17T07:10:51;100495.72;;;10.01;100.00
39891;BME280;25564;53.312;9.790;2023-02-17T07:13:23;100469.38;;;9.94;100.00
39891;BME280;25564;53.312;9.790;2023-02-17T07:15:54;100470.22;;;9.96;100.00
39891;BME280;25564;53.312;9.790;2023-02-17T07:18:25;100474.53;;;10.01;100.00
39891;BME280;25564;53.312;9.790;2023-02-17T07:20:57;100451.69;;;9.94;100.00
39891;BME280;25564;53.312;9.790;2023-02-17T07:23:28;100478.94;;;10.01;100.00
39891;BME280;25564;53.312;9.790;2023-02-17T07:26:02;100462.97;;;10.04;100.00
39891;BME280;25564;53.312;9.790;2023-02-17T07:28:35;100478.88;;;10.04;100.00
39891;BME280;25564;53.312;9.790;2023-02-17T07:31:09;100485.94;;;10.05;100.00
39891;BME280;25564;53.312;9.790;2023-02-17T07:33:42;100455.31;;;9.89;100.00
39891;BME280;25564;53.312;9.790;2023-02-17T07:36:15;100478.06;;;10.00;100.00
39891;BME280;25564;53.312;9.790;2023-02-17T07:38:47;100477.09;;;10.06;100.00
39891;BME280;25564;53.312;9.790;2023-02-17T07:41:20;100478.84;;;10.07;100.00
39891;BME280;25564;53.312;9.790;2023-02-17T07:43:54;100471.72;;;10.09;100.00
39891;BME280;25564;53.312;9.790;2023-02-17T07:46:26;100470.81;;;10.10;100.00
39891;BME280;25564;53.312;9.790;2023-02-17T07:48:57;100475.22;;;10.11;100.00
39891;BME280;25564;53.312;9.790;2023-02-17T07:51:29;100473.47;;;10.10;100.00
39891;BME280;25564;53.312;9.790;2023-02-17T07:54:00;100443.66;;;9.97;100.00
39891;BME280;25564;53.312;9.790;2023-02-17T07:56:31;100466.41;;;10.09;100.00
39891;BME280;25564;53.312;9.790;2023-02-17T07:59:08;100468.22;;;10.07;100.00
39891;BME280;25564;53.312;9.790;2023-02-17T08:01:40;100458.47;;;10.09;100.00
39891;BME280;25564;53.312;9.790;2023-02-17T08:04:11;100451.44;;;10.06;100.00
39891;BME280;25564;53.312;9.790;2023-02-17T08:06:43;100454.94;;;10.08;100.00
39891;BME280;25564;53.312;9.790;2023-02-17T08:09:14;100436.34;;;10.10;100.00
39891;BME280;25564;53.312;9.790;2023-02-17T08:12:04;100391.69;;;9.90;100.00
39891;BME280;25564;53.312;9.790;2023-02-17T08:14:56;100416.09;;;10.06;100.00
39891;BME280;25564;53.312;9.790;2023-02-17T08:17:28;100430.13;;;10.12;100.00
39891;BME280;25564;53.312;9.790;2023-02-17T08:20:01;100414.16;;;10.14;100.00
39891;BME280;25564;53.312;9.790;2023-02-17T08:22:39;100410.69;;;10.12;100.00
39891;BME280;25564;53.312;9.790;2023-02-17T08:25:10;100392.31;;;10.03;100.00
39891;BME280;25564;53.312;9.790;2023-02-17T08:27:42;100308.38;;;9.60;100.00
39891;BME280;25564;53.312;9.790;2023-02-17T08:30:13;100371.84;;;10.09;100.00
39891;BME280;25564;53.312;9.790;2023-02-17T08:32:45;100371.09;;;10.03;100.00
39891;BME280;25564;53.312;9.790;2023-02-17T08:35:17;100391.22;;;10.13;100.00
39891;BME280;25564;53.312;9.790;2023-02-17T08:37:52;100375.50;;;10.04;100.00
39891;BME280;25564;53.312;9.790;2023-02-17T08:40:24;100390.31;;;10.14;100.00
39891;BME280;25564;53.312;9.790;2023-02-17T08:42:55;100345.72;;;9.91;100.00
39891;BME280;25564;53.312;9.790;2023-02-17T08:45:27;100361.28;;;10.08;100.00
39891;BME280;25564;53.312;9.790;2023-02-17T08:47:58;100368.16;;;10.16;100.00
39891;BME280;25564;53.312;9.790;2023-02-17T08:50:34;100358.47;;;10.15;100.00
39891;BME280;25564;53.312;9.790;2023-02-17T08:53:07;100355.84;;;10.14;100.00
39891;BME280;25564;53.312;9.790;2023-02-17T08:55:38;100362.03;;;10.13;100.00
39891;BME280;25564;53.312;9.790;2023-02-17T08:58:25;100350.72;;;10.05;100.00
39891;BME280;25564;53.312;9.790;2023-02-17T09:00:57;100365.47;;;10.18;100.00
39891;BME280;25564;53.312;9.790;2023-02-17T09:03:28;100364.59;;;10.18;100.00
39891;BME280;25564;53.312;9.790;2023-02-17T09:06:00;100372.53;;;10.19;100.00
39891;BME280;25564;53.312;9.790;2023-02-17T09:08:31;100371.41;;;10.31;100.00
39891;BME280;25564;53.312;9.790;2023-02-17T09:11:03;100378.41;;;10.35;100.00
39891;BME280;25564;53.312;9.790;2023-02-17T09:13:35;100373.22;;;10.29;100.00
39891;BME280;25564;53.312;9.790;2023-02-17T09:16:07;100370.59;;;10.29;100.00
39891;BME280;25564;53.312;9.790;2023-02-17T09:18:39;100376.53;;;10.40;100.00
39891;BME280;25564;53.312;9.790;2023-02-17T09:21:12;100365.81;;;10.43;100.00
39891;BME280;25564;53.312;9.790;2023-02-17T09:23:45;100366.75;;;10.40;100.00
39891;BME280;25564;53.312;9.790;2023-02-17T09:26:17;100344.97;;;10.28;100.00
39891;BME280;25564;53.312;9.790;2023-02-17T09:28:49;100351.78;;;10.39;100.00
39891;BME280;25564;53.312;9.790;2023-02-17T09:31:23;100373.66;;;10.47;100.00
39891;BME280;25564;53.312;9.790;2023-02-17T09:33:57;100341.88;;;10.46;100.00
39891;BME280;25564;53.312;9.790;2023-02-17T09:36:37;100357.72;;;10.49;100.00
39891;BME280;25564;53.312;9.790;2023-02-17T09:39:09;100277.06;;;10.19;100.00
39891;BME280;25564;53.312;9.790;2023-02-17T09:41:46;100341.75;;;10.51;100.00
39891;BME280;25564;53.312;9.790;2023-02-17T09:44:21;100328.50;;;10.51;100.00
39891;BME280;25564;53.312;9.790;2023-02-17T09:46:58;100325.84;;;10.51;100.00
39891;BME280;25564;53.312;9.790;2023-02-17T09:49:40;100327.50;;;10.55;100.00
39891;BME280;25564;53.312;9.790;2023-02-17T09:52:19;100314.41;;;10.48;100.00
39891;BME280;25564;53.312;9.790;2023-02-17T09:57:34;100286.88;;;10.53;100.00
39891;BME280;25564;53.312;9.790;2023-02-17T10:00:10;100297.69;;;10.45;100.00
39891;BME280;25564;53.312;9.790;2023-02-17T10:05:28;100297.72;;;10.43;100.00
39891;BME280;25564;53.312;9.790;2023-02-17T10:08:12;100293.41;;;10.39;100.00
39891;BME280;25564;53.312;9.790;2023-02-17T10:10:53;100325.69;;;10.57;100.00
39891;BME280;25564;53.312;9.790;2023-02-17T10:13:29;100336.31;;;10.57;100.00
39891;BME280;25564;53.312;9.790;2023-02-17T10:16:06;100307.16;;;10.55;100.00
39891;BME280;25564;53.312;9.790;2023-02-17T10:18:45;100324.72;;;10.61;100.00
39891;BME280;25564;53.312;9.790;2023-02-17T10:21:27;100345.91;;;10.62;100.00
39891;BME280;25564;53.312;9.790;2023-02-17T10:24:01;100330.84;;;10.63;100.00
39891;BME280;25564;53.312;9.790;2023-02-17T10:26:47;100342.28;;;10.66;100.00
39891;BME280;25564;53.312;9.790;2023-02-17T10:32:22;100348.38;;;10.70;100.00
39891;BME280;25564;53.312;9.790;2023-02-17T10:35:11;100353.69;;;10.70;100.00
39891;BME280;25564;53.312;9.790;2023-02-17T10:37:50;100350.13;;;10.71;100.00
39891;BME280;25564;53.312;9.790;2023-02-17T10:40:27;100335.00;;;10.74;100.00
39891;BME280;25564;53.312;9.790;2023-02-17T10:43:01;100354.38;;;10.78;100.00
39891;BME280;25564;53.312;9.790;2023-02-17T10:45:40;100313.66;;;10.79;100.00
39891;BME280;25564;53.312;9.790;2023-02-17T10:48:23;100327.03;;;10.74;100.00
39891;BME280;25564;53.312;9.790;2023-02-17T10:50:58;100348.09;;;10.82;100.00
39891;BME280;25564;53.312;9.790;2023-02-17T10:53:33;100332.38;;;10.73;100.00
39891;BME280;25564;53.312;9.790;2023-02-17T10:56:10;100340.97;;;10.84;100.00
39891;BME280;25564;53.312;9.790;2023-02-17T11:01:16;100337.34;;;10.87;100.00
39891;BME280;25564;53.312;9.790;2023-02-17T11:04:01;100338.16;;;10.90;100.00
39891;BME280;25564;53.312;9.790;2023-02-17T11:06:40;100314.41;;;10.84;100.00
39891;BME280;25564;53.312;9.790;2023-02-17T11:09:20;100324.81;;;10.93;100.00
39891;BME280;25564;53.312;9.790;2023-02-17T11:11:58;100314.25;;;10.90;100.00
39891;BME280;25564;53.312;9.790;2023-02-17T11:14:31;100310.69;;;10.91;100.00
39891;BME280;25564;53.312;9.790;2023-02-17T11:17:15;100306.34;;;10.89;100.00
39891;BME280;25564;53.312;9.790;2023-02-17T11:20:32;100301.91;;;10.89;100.00
39891;BME280;25564;53.312;9.790;2023-02-17T11:26:17;100308.31;;;10.80;100.00
39891;BME280;25564;53.312;9.790;2023-02-17T11:28:45;100305.69;;;10.79;100.00
39891;BME280;25564;53.312;9.790;2023-02-17T11:31:28;100313.66;;;10.79;100.00
39891;BME280;25564;53.312;9.790;2023-02-17T11:34:18;100286.50;;;10.68;100.00
39891;BME280;25564;53.312;9.790;2023-02-17T11:39:54;100296.75;;;10.83;100.00
39891;BME280;25564;53.312;9.790;2023-02-17T11:42:30;100282.88;;;10.72;100.00
39891;BME280;25564;53.312;9.790;2023-02-17T11:45:15;100272.34;;;10.69;100.00
39891;BME280;25564;53.312;9.790;2023-02-17T11:48:13;100290.75;;;10.75;100.00
39891;BME280;25564;53.312;9.790;2023-02-17T11:50:57;100292.50;;;10.76;100.00
39891;BME280;25564;53.312;9.790;2023-02-17T11:53:47;100295.16;;;10.76;100.00
39891;BME280;25564;53.312;9.790;2023-02-17T11:56:24;100288.03;;;10.78;100.00
39891;BME280;25564;53.312;9.790;2023-02-17T11:59:28;100285.34;;;10.79;100.00
39891;BME280;25564;53.312;9.790;2023-02-17T12:05:10;100279.22;;;10.76;100.00
39891;BME280;25564;53.312;9.790;2023-02-17T12:07:58;100281.97;;;10.73;100.00
39891;BME280;25564;53.312;9.790;2023-02-17T12:13:38;100283.59;;;10.78;100.00
39891;BME280;25564;53.312;9.790;2023-02-17T12:16:26;100286.03;;;10.86;100.00
39891;BME280;25564;53.312;9.790;2023-02-17T12:19:22;100280.78;;;10.85;100.00
39891;BME280;25564;53.312;9.790;2023-02-17T12:24:52;100285.09;;;10.89;100.00
39891;BME280;25564;53.312;9.790;2023-02-17T12:30:45;100297.53;;;10.87;100.00
39891;BME280;25564;53.312;9.790;2023-02-17T12:36:08;100279.81;;;10.87;100.00
39891;BME280;25564;53.312;9.790;2023-02-17T12:38:44;100265.97;;;10.76;100.00
39891;BME280;25564;53.312;9.790;2023-02-17T12:41:37;100290.69;;;10.78;100.00
39891;BME280;25564;53.312;9.790;2023-02-17T12:46:53;100283.56;;;10.80;100.00
39891;BME280;25564;53.312;9.790;2023-02-17T12:49:33;100283.34;;;10.88;100.00
39891;BME280;25564;53.312;9.790;2023-02-17T12:52:14;100278.91;;;10.88;100.00
39891;BME280;25564;53.312;9.790;2023-02-17T12:54:57;100299.28;;;10.88;100.00
39891;BME280;25564;53.312;9.790;2023-02-17T12:57:51;100293.91;;;10.91;100.00
39891;BME280;25564;53.312;9.790;2023-02-17T13:00:42;100271.94;;;10.84;100.00
39891;BME280;25564;53.312;9.790;2023-02-17T13:03:14;100228.59;;;10.49;100.00
39891;BME280;25564;53.312;9.790;2023-02-17T13:05:56;100301.91;;;10.89;100.00
39891;BME280;25564;53.312;9.790;2023-02-17T13:08:38;100293.94;;;10.89;100.00
39891;BME280;25564;53.312;9.790;2023-02-17T13:11:25;100297.41;;;10.91;100.00
39891;BME280;25564;53.312;9.790;2023-02-17T13:14:08;100296.53;;;10.91;100.00
39891;BME280;25564;53.312;9.790;2023-02-17T13:16:44;100277.41;;;10.78;100.00
39891;BME280;25564;53.312;9.790;2023-02-17T13:19:27;100299.28;;;10.88;100.00
39891;BME280;25564;53.312;9.790;2023-02-17T13:22:00;100293.94;;;10.89;100.00
39891;BME280;25564;53.312;9.790;2023-02-17T13:24:35;100278.13;;;10.85;100.00
39891;BME280;25564;53.312;9.790;2023-02-17T13:27:18;100296.66;;;10.86;100.00
39891;BME280;25564;53.312;9.790;2023-02-17T13:33:05;100282.44;;;10.89;100.00
39891;BME280;25564;53.312;9.790;2023-02-17T13:35:36;100306.56;;;10.79;100.00
39891;BME280;25564;53.312;9.790;2023-02-17T13:38:08;100299.47;;;10.80;100.00
39891;BME280;25564;53.312;9.790;2023-02-17T13:40:42;100320.47;;;10.89;100.00
39891;BME280;25564;53.312;9.790;2023-02-17T13:43:15;100320.38;;;10.94;100.00
39891;BME280;25564;53.312;9.790;2023-02-17T13:45:58;100320.22;;;11.00;100.00
39891;BME280;25564;53.312;9.790;2023-02-17T13:48:33;100307.75;;;11.02;100.00
39891;BME280;25564;53.312;9.790;2023-02-17T13:51:06;100313.88;;;11.05;100.00
39891;BME280;25564;53.312;9.790;2023-02-17T13:53:41;100289.38;;;10.94;100.00
39891;BME280;25564;53.312;9.790;2023-02-17T13:56:27;100305.88;;;11.07;100.00
39891;BME280;25564;53.312;9.790;2023-02-17T13:59:06;100289.31;;;10.97;100.00
39891;BME280;25564;53.312;9.790;2023-02-17T14:01:41;100285.94;;;10.91;100.00
39891;BME280;25564;53.312;9.790;2023-02-17T14:04:22;100307.81;;;11.00;100.00
39891;BME280;25564;53.312;9.790;2023-02-17T14:07:01;100286.81;;;10.91;100.00
39891;BME280;25564;53.312;9.790;2023-02-17T14:09:33;100308.00;;;10.93;100.00
39891;BME280;25564;53.312;9.790;2023-02-17T14:12:08;100310.72;;;10.90;100.00
39891;BME280;25564;53.312;9.790;2023-02-17T14:14:47;100315.84;;;10.97;100.00
39891;BME280;25564;53.312;9.790;2023-02-17T14:17:28;100312.91;;;11.08;100.00
39891;BME280;25564;53.312;9.790;2023-02-17T14:20:03;100311.22;;;11.05;100.00
39891;BME280;25564;53.312;9.790;2023-02-17T14:22:34;100322.75;;;11.04;100.00
39891;BME280;25564;53.312;9.790;2023-02-17T14:25:12;100339.53;;;11.05;100.00
39891;BME280;25564;53.312;9.790;2023-02-17T14:27:47;100331.47;;;11.09;100.00
39891;BME280;25564;53.312;9.790;2023-02-17T14:30:32;100324.16;;;11.18;100.00
39891;BME280;25564;53.312;9.790;2023-02-17T14:35:37;100328.50;;;11.22;100.00
39891;BME280;25564;53.312;9.790;2023-02-17T14:38:25;100317.03;;;11.20;100.00
39891;BME280;25564;53.312;9.790;2023-02-17T14:40:58;100312.72;;;11.16;100.00
39891;BME280;25564;53.312;9.790;2023-02-17T14:43:30;100317.13;;;11.17;100.00
39891;BME280;25564;53.312;9.790;2023-02-17T14:46:02;100296.13;;;11.07;100.00
39891;BME280;25564;53.312;9.790;2023-02-17T14:48:33;100305.09;;;11.02;100.00